createdAt,value
2018-11-01T00:00:01.455Z,7.4
2018-11-01T00:05:01.391Z,6.5
2018-11-01T00:10:01.463Z,6.4
2018-11-01T00:15:06.419Z,6.2
2018-11-01T00:20:06.537Z,6.2
2018-11-01T00:25:01.429Z,6.2
2018-11-01T00:30:01.487Z,6.4
2018-11-01T00:35:01.422Z,6.8
2018-11-01T00:40:01.449Z,7.2
2018-11-01T00:45:06.399Z,7.2
2018-11-01T00:50:06.534Z,6.9
2018-11-01T00:55:01.437Z,6.9
2018-11-01T01:00:06.591Z,6.3
2018-11-01T01:10:06.478Z,6.1
2018-11-01T01:15:06.413Z,6.2
2018-11-01T01:20:01.462Z,6.0
2018-11-01T01:30:01.403Z,6.6
2018-11-01T01:36:06.425Z,6.6
2018-11-01T01:41:01.499Z,7.0
2018-11-01T01:46:06.422Z,7.1
2018-11-01T01:51:06.406Z,7.1
2018-11-01T01:56:01.445Z,6.8
2018-11-01T02:01:06.469Z,6.4
2018-11-01T02:06:01.496Z,6.0
2018-11-01T02:11:01.508Z,6.3
2018-11-01T02:16:01.437Z,6.2
2018-11-01T02:21:06.464Z,6.2
2018-11-01T02:26:01.458Z,6.5
2018-11-01T02:31:01.485Z,6.5
2018-11-01T02:36:01.446Z,6.5
2018-11-01T02:41:06.408Z,6.0
2018-11-01T02:46:01.469Z,6.2
2018-11-01T02:51:01.664Z,6.0
2018-11-01T02:56:01.429Z,6.1
2018-11-01T03:01:01.418Z,5.8
2018-11-01T03:06:01.396Z,5.5
2018-11-01T03:11:01.525Z,5.7
2018-11-01T03:16:03.240Z,5.7
2018-11-01T03:21:01.524Z,5.8
2018-11-01T03:26:01.389Z,6.0
2018-11-01T03:31:01.523Z,6.4
2018-11-01T03:36:01.419Z,6.3
2018-11-01T03:41:01.597Z,6.0
2018-11-01T03:46:01.398Z,5.3
2018-11-01T03:51:02.551Z,4.5
2018-11-01T03:56:01.441Z,4.4
2018-11-01T04:01:01.540Z,4.3
2018-11-01T04:06:01.401Z,4.4
2018-11-01T04:11:01.449Z,4.4
2018-11-01T04:16:01.384Z,4.8
2018-11-01T04:21:01.591Z,4.8
2018-11-01T04:26:03.413Z,4.5
2018-11-01T04:31:01.712Z,4.8
2018-11-01T04:36:01.484Z,4.6
2018-11-01T04:41:01.474Z,4.7
2018-11-01T04:46:01.396Z,5.0
2018-11-01T04:56:01.923Z,5.2
2018-11-01T05:01:01.517Z,5.9
2018-11-01T05:06:01.592Z,6.1
2018-11-01T05:11:01.563Z,6.4
2018-11-01T05:16:01.464Z,9.0
2018-11-01T05:31:01.516Z,9.1
2018-11-01T05:36:01.519Z,8.8
2018-11-01T05:41:01.589Z,6.3
2018-11-01T05:46:01.616Z,6.6
2018-11-01T05:51:01.451Z,6.7
2018-11-01T05:56:01.394Z,6.6
2018-11-01T06:01:01.523Z,6.2
2018-11-01T06:06:01.387Z,6.2
2018-11-01T06:16:01.530Z,6.0
2018-11-01T06:21:01.461Z,5.8
2018-11-01T06:26:01.404Z,6.4
2018-11-01T06:31:01.462Z,6.1
2018-11-01T06:36:01.406Z,6.3
2018-11-01T06:46:01.462Z,6.4
2018-11-01T06:51:01.475Z,6.2
2018-11-01T06:56:01.404Z,6.0
2018-11-01T07:01:01.543Z,6.0
2018-11-01T07:07:01.801Z,6.0
2018-11-01T07:17:01.792Z,6.3
2018-11-01T07:32:01.469Z,6.4
2018-11-01T07:37:01.441Z,6.3
2018-11-01T07:42:01.575Z,6.2
2018-11-01T07:47:01.406Z,5.8
2018-11-01T07:52:01.527Z,5.2
2018-11-01T07:57:01.397Z,4.8
2018-11-01T08:02:01.512Z,4.6
2018-11-01T08:07:01.384Z,4.2
2018-11-01T08:12:01.836Z,4.6
2018-11-01T08:17:01.398Z,5.2
2018-11-01T08:22:01.450Z,5.3
2018-11-01T08:27:01.396Z,5.8
2018-11-01T08:32:01.517Z,6.0
2018-11-01T08:37:01.459Z,6.0
2018-11-01T08:42:01.475Z,5.6
2018-11-01T08:47:01.398Z,6.2
2018-11-01T08:52:06.406Z,6.4
2018-11-01T08:57:01.400Z,7.0
2018-11-01T09:02:01.429Z,7.0
2018-11-01T09:07:01.413Z,7.3
2018-11-01T09:12:01.517Z,7.2
2018-11-01T09:17:01.615Z,7.0
2018-11-01T09:22:01.465Z,7.0
2018-11-01T09:27:01.917Z,6.8
2018-11-01T09:32:01.459Z,6.6
2018-11-01T09:37:01.461Z,6.3
2018-11-01T09:42:06.405Z,6.3
2018-11-01T09:47:09.177Z,6.7
2018-11-01T09:52:01.566Z,7.2
2018-11-01T09:57:06.420Z,7.6
2018-11-01T10:02:06.472Z,7.8
2018-11-01T10:07:07.028Z,8.0
2018-11-01T10:17:03.488Z,8.0
2018-11-01T10:22:02.134Z,8.2
2018-11-01T10:27:01.392Z,8.6
2018-11-01T10:32:06.461Z,8.6
2018-11-01T10:37:01.384Z,9.0
2018-11-01T10:42:01.557Z,9.1
2018-11-01T10:47:01.434Z,9.9
2018-11-01T10:52:01.502Z,10.4
2018-11-01T10:57:06.408Z,11.0
2018-11-01T11:02:06.427Z,11.6
2018-11-01T11:07:01.439Z,11.8
2018-11-01T11:12:01.574Z,11.6
2018-11-01T11:17:06.418Z,11.7
2018-11-01T11:22:06.595Z,11.8
2018-11-01T11:27:01.471Z,11.8
2018-11-01T11:32:01.466Z,11.9
2018-11-01T11:37:01.437Z,12.2
2018-11-01T11:42:01.557Z,12.6
2018-11-01T11:47:01.494Z,13.0
2018-11-01T11:52:06.814Z,13.6
2018-11-01T11:57:06.723Z,14.4
2018-11-01T12:02:06.714Z,15.3
2018-11-01T12:07:01.556Z,16.0
2018-11-01T12:17:01.603Z,16.8
2018-11-01T12:22:01.463Z,17.4
2018-11-01T12:27:01.410Z,17.8
2018-11-01T12:32:01.393Z,18.1
2018-11-01T12:37:01.388Z,18.5
2018-11-01T12:42:01.396Z,19.3
2018-11-01T12:47:01.395Z,19.3
2018-11-01T12:52:01.453Z,19.2
2018-11-01T12:57:01.387Z,19.7
2018-11-01T13:02:01.531Z,19.7
2018-11-01T13:07:01.659Z,19.6
2018-11-01T13:12:01.782Z,19.6
2018-11-01T13:17:06.392Z,19.8
2018-11-01T13:22:06.721Z,19.8
2018-11-01T13:27:06.411Z,20.4
2018-11-01T13:32:01.865Z,20.4
2018-11-01T13:37:01.408Z,21.1
2018-11-01T13:42:01.404Z,21.0
2018-11-01T13:47:01.970Z,21.6
2018-11-01T13:52:01.585Z,22.1
2018-11-01T13:57:01.407Z,22.7
2018-11-01T14:02:01.478Z,21.9
2018-11-01T14:07:01.389Z,22.4
2018-11-01T14:12:01.395Z,22.0
2018-11-01T14:17:01.394Z,21.6
2018-11-01T14:22:01.464Z,21.6
2018-11-01T14:27:01.527Z,22.4
2018-11-01T14:32:01.402Z,22.5
2018-11-01T14:37:01.400Z,23.0
2018-11-01T14:42:01.526Z,23.9
2018-11-01T14:47:01.466Z,24.5
2018-11-01T14:53:04.030Z,24.2
2018-11-01T14:58:07.496Z,24.2
2018-11-01T15:03:01.598Z,23.4
2018-11-01T15:08:01.392Z,22.6
2018-11-01T15:13:01.848Z,21.9
2018-11-01T15:18:01.396Z,22.5
2018-11-01T15:23:01.453Z,23.0
2018-11-01T15:28:01.455Z,23.7
2018-11-01T15:33:01.418Z,24.1
2018-11-01T15:38:01.396Z,24.5
2018-11-01T15:43:01.467Z,24.3
2018-11-01T15:48:01.406Z,23.9
2018-11-01T15:53:01.501Z,23.6
2018-11-01T15:58:06.457Z,23.2
2018-11-01T16:03:07.242Z,22.9
2018-11-01T16:08:01.430Z,22.9
2018-11-01T16:13:01.445Z,22.4
2018-11-01T16:18:01.430Z,22.6
2018-11-01T16:23:06.475Z,22.6
2018-11-01T16:33:01.653Z,22.8
2018-11-01T16:38:01.460Z,23.2
2018-11-01T16:43:01.587Z,23.3
2018-11-01T16:48:06.472Z,23.7
2018-11-01T16:53:06.466Z,24.1
2018-11-01T16:58:01.511Z,24.5
2018-11-01T17:03:06.460Z,24.8
2018-11-01T17:08:06.404Z,24.8
2018-11-01T17:13:06.419Z,24.8
2018-11-01T17:18:01.457Z,24.9
2018-11-01T17:23:01.439Z,24.2
2018-11-01T17:28:01.502Z,24.6
2018-11-01T17:33:06.477Z,24.9
2018-11-01T17:38:01.431Z,25.2
2018-11-01T17:43:01.507Z,25.4
2018-11-01T17:49:06.396Z,26.3
2018-11-01T17:54:01.486Z,26.0
2018-11-01T17:59:06.409Z,25.7
2018-11-01T18:04:01.490Z,25.5
2018-11-01T18:09:01.803Z,25.5
2018-11-01T18:14:01.632Z,25.5
2018-11-01T18:19:01.436Z,26.4
2018-11-01T18:24:01.565Z,26.7
2018-11-01T18:29:06.970Z,27.2
2018-11-01T18:34:06.611Z,27.9
2018-11-01T18:39:02.190Z,27.9
2018-11-01T18:49:01.385Z,27.4
2018-11-01T18:54:02.122Z,27.3
2018-11-01T18:59:01.536Z,27.3
2018-11-01T19:04:01.523Z,27.7
2018-11-01T19:09:01.394Z,28.4
2018-11-01T19:14:02.034Z,28.9
2018-11-01T19:19:01.524Z,29.3
2018-11-01T19:24:06.853Z,29.4
2018-11-01T19:29:01.466Z,29.6
2018-11-01T19:34:07.094Z,29.6
2018-11-01T19:39:01.396Z,29.8
2018-11-01T19:44:01.651Z,30.0
2018-11-01T19:49:01.525Z,29.9
2018-11-01T19:54:01.875Z,29.7
2018-11-01T19:59:01.406Z,29.2
2018-11-01T20:04:01.661Z,29.0
2018-11-01T20:09:02.072Z,29.0
2018-11-01T20:14:01.395Z,28.7
2018-11-01T20:19:02.082Z,28.2
2018-11-01T20:24:02.161Z,28.2
2018-11-01T20:29:01.397Z,27.9
2018-11-01T20:34:01.912Z,27.8
2018-11-01T20:44:01.518Z,28.0
2018-11-01T20:49:06.501Z,28.1
2018-11-01T20:54:01.472Z,28.2
2018-11-01T20:59:01.451Z,27.8
2018-11-01T21:04:01.461Z,28.5
2018-11-01T21:09:01.489Z,28.5
2018-11-01T21:14:01.461Z,29.0
2018-11-01T21:19:01.406Z,29.2
2018-11-01T21:24:01.395Z,29.6
2018-11-01T21:29:01.675Z,28.3
2018-11-01T21:34:01.468Z,29.0
2018-11-01T21:39:01.405Z,28.4
2018-11-01T21:44:01.467Z,28.7
2018-11-01T21:49:01.462Z,28.3
2018-11-01T21:54:01.527Z,29.0
2018-11-01T21:59:01.423Z,28.5
2018-11-01T22:04:01.534Z,28.2
2018-11-01T22:14:01.497Z,28.4
2018-11-01T22:19:01.391Z,28.2
2018-11-01T22:24:01.652Z,28.4
2018-11-01T22:29:06.391Z,29.0
2018-11-01T22:34:06.591Z,28.9
2018-11-01T22:39:06.853Z,28.5
2018-11-01T22:44:01.492Z,28.4
2018-11-01T22:49:01.438Z,28.1
2018-11-01T22:54:02.405Z,27.6
2018-11-01T22:59:06.532Z,27.2
2018-11-01T23:04:06.601Z,26.9
2018-11-01T23:14:06.608Z,26.6
2018-11-01T23:19:02.119Z,26.4
2018-11-01T23:24:01.573Z,25.3
2018-11-01T23:29:01.576Z,25.1
2018-11-01T23:34:01.496Z,24.8
2018-11-01T23:39:01.432Z,24.6
2018-11-01T23:44:01.515Z,24.4
2018-11-01T23:49:01.592Z,24.8
2018-11-01T23:54:01.527Z,25.0
2018-11-01T23:59:01.398Z,24.8
